sensor_id;sensor_type;location;lat;lon;timestamp;pressure;altitude;pressure_sealevel;temperature;humidity
27729;BME280;15126;42.186;24.340;2022-10-16T00:00:21;100021.59;;;13.01;77.65
27729;BME280;15126;42.186;24.340;2022-10-16T00:02:48;100021.25;;;12.99;77.63
27729;BME280;15126;42.186;24.340;2022-10-16T00:05:15;100017.25;;;12.96;77.49
27729;BME280;15126;42.186;24.340;2022-10-16T00:07:42;100019.00;;;12.90;77.74
27729;BME280;15126;42.186;24.340;2022-10-16T00:10:08;100023.00;;;12.89;77.67
27729;BME280;15126;42.186;24.340;2022-10-16T00:12:37;100017.06;;;12.87;78.04
27729;BME280;15126;42.186;24.340;2022-10-16T00:15:04;100029.16;;;12.81;78.13
27729;BME280;15126;42.186;24.340;2022-10-16T00:17:32;100018.91;;;12.74;78.09
27729;BME280;15126;42.186;24.340;2022-10-16T00:19:58;100022.47;;;12.75;77.91
27729;BME280;15126;42.186;24.340;2022-10-16T00:22:25;100034.84;;;12.77;77.91
27729;BME280;15126;42.186;24.340;2022-10-16T00:24:52;100029.66;;;12.76;77.78
27729;BME280;15126;42.186;24.340;2022-10-16T00:27:19;100034.13;;;12.73;77.80
27729;BME280;15126;42.186;24.340;2022-10-16T00:29:50;100028.56;;;12.70;77.95
27729;BME280;15126;42.186;24.340;2022-10-16T00:32:18;100017.22;;;12.57;77.97
27729;BME280;15126;42.186;24.340;2022-10-16T00:34:45;100028.47;;;12.53;78.60
27729;BME280;15126;42.186;24.340;2022-10-16T00:37:12;100033.44;;;12.42;79.12
27729;BME280;15126;42.186;24.340;2022-10-16T00:39:39;100033.56;;;12.35;78.82
27729;BME280;15126;42.186;24.340;2022-10-16T00:42:06;100016.97;;;12.25;79.03
27729;BME280;15126;42.186;24.340;2022-10-16T00:44:47;100043.94;;;12.38;78.44
27729;BME280;15126;42.186;24.340;2022-10-16T00:47:19;100024.63;;;12.21;79.92
27729;BME280;15126;42.186;24.340;2022-10-16T00:49:48;100033.00;;;12.21;78.93
27729;BME280;15126;42.186;24.340;2022-10-16T00:52:16;100056.81;;;12.32;79.10
27729;BME280;15126;42.186;24.340;2022-10-16T00:54:46;100051.22;;;12.32;78.79
27729;BME280;15126;42.186;24.340;2022-10-16T00:57:13;100059.16;;;12.34;78.38
27729;BME280;15126;42.186;24.340;2022-10-16T00:59:41;100050.53;;;12.25;78.72
27729;BME280;15126;42.186;24.340;2022-10-16T01:02:10;100072.88;;;12.28;78.28
27729;BME280;15126;42.186;24.340;2022-10-16T01:04:40;100075.28;;;12.26;78.12
27729;BME280;15126;42.186;24.340;2022-10-16T01:07:14;100074.13;;;12.24;78.26
27729;BME280;15126;42.186;24.340;2022-10-16T01:09:53;100082.56;;;12.20;78.12
27729;BME280;15126;42.186;24.340;2022-10-16T01:12:32;100083.44;;;12.17;78.28
27729;BME280;15126;42.186;24.340;2022-10-16T01:15:07;100085.44;;;12.17;78.06
27729;BME280;15126;42.186;24.340;2022-10-16T01:17:41;100083.88;;;12.12;78.63
27729;BME280;15126;42.186;24.340;2022-10-16T01:20:16;100081.56;;;12.07;78.09
27729;BME280;15126;42.186;24.340;2022-10-16T01:23:01;100073.16;;;12.07;78.35
27729;BME280;15126;42.186;24.340;2022-10-16T01:25:39;100076.81;;;12.04;78.62
27729;BME280;15126;42.186;24.340;2022-10-16T01:28:14;100087.34;;;11.93;79.30
27729;BME280;15126;42.186;24.340;2022-10-16T01:30:43;100093.81;;;11.90;79.41
27729;BME280;15126;42.186;24.340;2022-10-16T01:33:22;100097.44;;;11.87;79.38
27729;BME280;15126;42.186;24.340;2022-10-16T01:35:53;100076.09;;;11.70;80.25
27729;BME280;15126;42.186;24.340;2022-10-16T01:38:25;100085.09;;;11.51;81.52
27729;BME280;15126;42.186;24.340;2022-10-16T01:40:57;100095.78;;;11.59;80.67
27729;BME280;15126;42.186;24.340;2022-10-16T01:43:30;100085.47;;;11.53;81.21
27729;BME280;15126;42.186;24.340;2022-10-16T01:46:00;100096.97;;;11.58;80.00
27729;BME280;15126;42.186;24.340;2022-10-16T01:48:29;100089.41;;;11.55;80.26
27729;BME280;15126;42.186;24.340;2022-10-16T01:51:01;100076.38;;;11.45;80.36
27729;BME280;15126;42.186;24.340;2022-10-16T01:53:30;100085.06;;;11.54;79.43
27729;BME280;15126;42.186;24.340;2022-10-16T01:55:58;100081.97;;;11.45;79.51
27729;BME280;15126;42.186;24.340;2022-10-16T01:58:27;100093.56;;;11.06;82.34
27729;BME280;15126;42.186;24.340;2022-10-16T02:01:01;100079.84;;;10.85;83.45
27729;BME280;15126;42.186;24.340;2022-10-16T02:03:29;100088.66;;;10.80;84.51
27729;BME280;15126;42.186;24.340;2022-10-16T02:05:57;100098.47;;;10.95;83.16
27729;BME280;15126;42.186;24.340;2022-10-16T02:08:27;100102.38;;;11.05;82.09
27729;BME280;15126;42.186;24.340;2022-10-16T02:10:55;100096.53;;;10.92;82.46
27729;BME280;15126;42.186;24.340;2022-10-16T02:13:25;100103.13;;;11.09;81.54
27729;BME280;15126;42.186;24.340;2022-10-16T02:15:55;100105.59;;;11.03;82.17
27729;BME280;15126;42.186;24.340;2022-10-16T02:18:22;100102.13;;;10.92;83.17
27729;BME280;15126;42.186;24.340;2022-10-16T02:20:54;100106.47;;;10.97;83.33
27729;BME280;15126;42.186;24.340;2022-10-16T02:23:27;100112.16;;;10.83;83.54
27729;BME280;15126;42.186;24.340;2022-10-16T02:25:58;100106.56;;;10.86;82.47
27729;BME280;15126;42.186;24.340;2022-10-16T02:28:32;100110.44;;;10.96;81.83
27729;BME280;15126;42.186;24.340;2022-10-16T02:31:06;100121.16;;;11.01;81.25
27729;BME280;15126;42.186;24.340;2022-10-16T02:33:36;100096.13;;;10.90;80.83
27729;BME280;15126;42.186;24.340;2022-10-16T02:36:04;100103.66;;;10.97;80.81
27729;BME280;15126;42.186;24.340;2022-10-16T02:38:32;100112.00;;;11.00;80.04
27729;BME280;15126;42.186;24.340;2022-10-16T02:40:59;100102.16;;;10.89;81.04
27729;BME280;15126;42.186;24.340;2022-10-16T02:43:26;100121.75;;;10.82;82.57
27729;BME280;15126;42.186;24.340;2022-10-16T02:45:53;100119.84;;;10.71;82.44
27729;BME280;15126;42.186;24.340;2022-10-16T02:48:21;100115.88;;;10.69;82.28
27729;BME280;15126;42.186;24.340;2022-10-16T02:50:48;100106.81;;;10.58;82.43
27729;BME280;15126;42.186;24.340;2022-10-16T02:53:14;100123.19;;;10.52;82.45
27729;BME280;15126;42.186;24.340;2022-10-16T02:55:41;100129.06;;;10.65;81.59
27729;BME280;15126;42.186;24.340;2022-10-16T02:58:08;100131.84;;;10.13;82.86
27729;BME280;15126;42.186;24.340;2022-10-16T03:00:35;100132.69;;;10.00;84.19
27729;BME280;15126;42.186;24.340;2022-10-16T03:03:01;100130.22;;;10.16;82.97
27729;BME280;15126;42.186;24.340;2022-10-16T03:05:30;100140.63;;;9.98;83.38
27729;BME280;15126;42.186;24.340;2022-10-16T03:07:56;100136.66;;;10.02;84.44
27729;BME280;15126;42.186;24.340;2022-10-16T03:10:25;100133.13;;;9.88;85.21
27729;BME280;15126;42.186;24.340;2022-10-16T03:12:52;100141.00;;;10.07;83.66
27729;BME280;15126;42.186;24.340;2022-10-16T03:15:19;100145.38;;;10.04;83.37
27729;BME280;15126;42.186;24.340;2022-10-16T03:17:45;100142.16;;;10.16;82.25
27729;BME280;15126;42.186;24.340;2022-10-16T03:20:12;100129.41;;;10.12;81.89
27729;BME280;15126;42.186;24.340;2022-10-16T03:22:40;100142.50;;;10.22;81.42
27729;BME280;15126;42.186;24.340;2022-10-16T03:25:08;100139.72;;;10.22;81.76
27729;BME280;15126;42.186;24.340;2022-10-16T03:27:34;100142.91;;;10.24;81.31
27729;BME280;15126;42.186;24.340;2022-10-16T03:30:02;100131.84;;;10.13;81.75
27729;BME280;15126;42.186;24.340;2022-10-16T03:32:28;100143.72;;;10.21;81.19
27729;BME280;15126;42.186;24.340;2022-10-16T03:34:55;100152.03;;;10.32;80.50
27729;BME280;15126;42.186;24.340;2022-10-16T03:37:22;100144.50;;;10.25;80.82
27729;BME280;15126;42.186;24.340;2022-10-16T03:39:50;100156.81;;;10.31;80.48
27729;BME280;15126;42.186;24.340;2022-10-16T03:42:19;100153.22;;;10.31;80.28
27729;BME280;15126;42.186;24.340;2022-10-16T03:44:46;100140.56;;;10.19;80.08
27729;BME280;15126;42.186;24.340;2022-10-16T03:47:13;100157.25;;;10.26;80.51
27729;BME280;15126;42.186;24.340;2022-10-16T03:49:40;100156.44;;;10.26;80.34
27729;BME280;15126;42.186;24.340;2022-10-16T03:52:06;100135.00;;;10.12;80.73
27729;BME280;15126;42.186;24.340;2022-10-16T03:54:33;100151.69;;;10.23;80.12
27729;BME280;15126;42.186;24.340;2022-10-16T03:57:01;100155.69;;;10.22;80.31
27729;BME280;15126;42.186;24.340;2022-10-16T03:59:28;100156.50;;;10.11;80.92
27729;BME280;15126;42.186;24.340;2022-10-16T04:01:55;100133.06;;;10.02;80.66
27729;BME280;15126;42.186;24.340;2022-10-16T04:04:21;100160.91;;;10.12;80.76
27729;BME280;15126;42.186;24.340;2022-10-16T04:06:48;100164.47;;;10.09;80.83
27729;BME280;15126;42.186;24.340;2022-10-16T04:09:15;100158.97;;;9.95;81.65
27729;BME280;15126;42.186;24.340;2022-10-16T04:11:42;100159.06;;;9.71;83.20
27729;BME280;15126;42.186;24.340;2022-10-16T04:14:10;100162.78;;;9.32;84.74
27729;BME280;15126;42.186;24.340;2022-10-16T04:16:37;100164.78;;;9.28;85.31
27729;BME280;15126;42.186;24.340;2022-10-16T04:19:03;100162.38;;;9.30;85.86
27729;BME280;15126;42.186;24.340;2022-10-16T04:21:30;100154.84;;;9.34;84.88
27729;BME280;15126;42.186;24.340;2022-10-16T04:23:57;100165.59;;;9.22;85.54
27729;BME280;15126;42.186;24.340;2022-10-16T04:26:24;100158.84;;;9.23;86.49
27729;BME280;15126;42.186;24.340;2022-10-16T04:28:50;100158.00;;;9.36;84.86
27729;BME280;15126;42.186;24.340;2022-10-16T04:31:19;100149.25;;;9.38;83.90
27729;BME280;15126;42.186;24.340;2022-10-16T04:33:46;100159.16;;;9.49;83.71
27729;BME280;15126;42.186;24.340;2022-10-16T04:36:13;100161.13;;;9.56;83.38
27729;BME280;15126;42.186;24.340;2022-10-16T04:38:40;100165.47;;;9.61;83.07
27729;BME280;15126;42.186;24.340;2022-10-16T04:41:07;100161.09;;;9.59;83.12
27729;BME280;15126;42.186;24.340;2022-10-16T04:43:34;100163.50;;;9.61;83.50
27729;BME280;15126;42.186;24.340;2022-10-16T04:46:01;100136.88;;;9.46;83.72
27729;BME280;15126;42.186;24.340;2022-10-16T04:48:31;100175.81;;;9.60;84.36
27729;BME280;15126;42.186;24.340;2022-10-16T04:50:58;100157.16;;;9.53;84.09
27729;BME280;15126;42.186;24.340;2022-10-16T04:53:25;100182.19;;;9.61;84.79
27729;BME280;15126;42.186;24.340;2022-10-16T04:55:51;100190.94;;;9.63;84.55
27729;BME280;15126;42.186;24.340;2022-10-16T04:58:18;100174.25;;;9.55;84.42
27729;BME280;15126;42.186;24.340;2022-10-16T05:00:45;100194.09;;;9.72;84.49
27729;BME280;15126;42.186;24.340;2022-10-16T05:03:12;100190.88;;;9.77;84.37
27729;BME280;15126;42.186;24.340;2022-10-16T05:05:44;100196.47;;;9.80;84.17
27729;BME280;15126;42.186;24.340;2022-10-16T05:08:11;100196.84;;;9.79;84.37
27729;BME280;15126;42.186;24.340;2022-10-16T05:10:38;100194.06;;;9.82;84.82
27729;BME280;15126;42.186;24.340;2022-10-16T05:13:07;100202.00;;;9.84;83.97
27729;BME280;15126;42.186;24.340;2022-10-16T05:15:34;100208.31;;;9.95;83.58
27729;BME280;15126;42.186;24.340;2022-10-16T05:18:00;100196.78;;;9.93;83.00
27729;BME280;15126;42.186;24.340;2022-10-16T05:20:27;100210.75;;;9.86;84.24
27729;BME280;15126;42.186;24.340;2022-10-16T05:22:56;100206.81;;;9.80;84.54
27729;BME280;15126;42.186;24.340;2022-10-16T05:25:22;100228.19;;;10.04;83.46
27729;BME280;15126;42.186;24.340;2022-10-16T05:27:50;100219.06;;;10.00;83.45
27729;BME280;15126;42.186;24.340;2022-10-16T05:30:17;100211.84;;;10.06;82.93
27729;BME280;15126;42.186;24.340;2022-10-16T05:32:47;100233.75;;;10.22;82.83
27729;BME280;15126;42.186;24.340;2022-10-16T05:35:17;100238.44;;;10.32;81.40
27729;BME280;15126;42.186;24.340;2022-10-16T05:37:44;100228.88;;;10.36;81.79
27729;BME280;15126;42.186;24.340;2022-10-16T05:40:13;100232.88;;;10.32;82.68
27729;BME280;15126;42.186;24.340;2022-10-16T05:42:40;100218.63;;;10.19;82.67
27729;BME280;15126;42.186;24.340;2022-10-16T05:45:09;100219.75;;;10.32;81.58
27729;BME280;15126;42.186;24.340;2022-10-16T05:47:37;100230.38;;;10.51;81.20
27729;BME280;15126;42.186;24.340;2022-10-16T05:50:06;100242.66;;;10.64;80.22
27729;BME280;15126;42.186;24.340;2022-10-16T05:52:33;100255.81;;;10.60;81.54
27729;BME280;15126;42.186;24.340;2022-10-16T05:55:00;100266.13;;;10.70;81.16
27729;BME280;15126;42.186;24.340;2022-10-16T05:57:28;100265.25;;;10.81;80.80
27729;BME280;15126;42.186;24.340;2022-10-16T05:59:55;100273.63;;;10.81;80.28
27729;BME280;15126;42.186;24.340;2022-10-16T06:02:22;100260.56;;;10.63;79.90
27729;BME280;15126;42.186;24.340;2022-10-16T06:04:49;100273.19;;;10.82;80.05
27729;BME280;15126;42.186;24.340;2022-10-16T06:07:18;100271.56;;;10.92;80.24
27729;BME280;15126;42.186;24.340;2022-10-16T06:09:48;100271.22;;;10.83;80.46
27729;BME280;15126;42.186;24.340;2022-10-16T06:12:15;100282.13;;;11.18;79.53
27729;BME280;15126;42.186;24.340;2022-10-16T06:14:43;100280.84;;;11.29;79.69
27729;BME280;15126;42.186;24.340;2022-10-16T06:17:12;100283.03;;;11.52;79.76
27729;BME280;15126;42.186;24.340;2022-10-16T06:19:38;100276.84;;;11.75;78.31
27729;BME280;15126;42.186;24.340;2022-10-16T06:22:06;100283.34;;;11.99;77.19
27729;BME280;15126;42.186;24.340;2022-10-16T06:24:33;100283.34;;;12.02;76.70
27729;BME280;15126;42.186;24.340;2022-10-16T06:26:59;100289.59;;;12.13;76.50
27729;BME280;15126;42.186;24.340;2022-10-16T06:29:26;100302.84;;;12.39;76.51
27729;BME280;15126;42.186;24.340;2022-10-16T06:31:55;100290.50;;;12.37;74.78
27729;BME280;15126;42.186;24.340;2022-10-16T06:34:24;100301.47;;;12.21;75.66
27729;BME280;15126;42.186;24.340;2022-10-16T06:36:51;100309.53;;;12.49;75.95
27729;BME280;15126;42.186;24.340;2022-10-16T06:39:18;100304.44;;;12.71;74.59
27729;BME280;15126;42.186;24.340;2022-10-16T06:41:44;100295.47;;;12.83;74.45
27729;BME280;15126;42.186;24.340;2022-10-16T06:44:11;100295.94;;;13.04;76.22
27729;BME280;15126;42.186;24.340;2022-10-16T06:46:38;100298.38;;;13.29;74.78
27729;BME280;15126;42.186;24.340;2022-10-16T06:49:09;100299.09;;;13.37;73.07
27729;BME280;15126;42.186;24.340;2022-10-16T06:51:35;100300.22;;;13.62;72.14
27729;BME280;15126;42.186;24.340;2022-10-16T06:54:06;100306.09;;;13.71;71.84
27729;BME280;15126;42.186;24.340;2022-10-16T06:56:33;100306.25;;;13.84;70.01
27729;BME280;15126;42.186;24.340;2022-10-16T06:59:00;100307.63;;;13.96;69.45
27729;BME280;15126;42.186;24.340;2022-10-16T07:01:28;100309.88;;;14.04;70.43
27729;BME280;15126;42.186;24.340;2022-10-16T07:03:55;100317.75;;;14.13;70.38
27729;BME280;15126;42.186;24.340;2022-10-16T07:06:25;100309.81;;;14.27;69.95
27729;BME280;15126;42.186;24.340;2022-10-16T07:08:52;100294.22;;;14.26;68.73
27729;BME280;15126;42.186;24.340;2022-10-16T07:11:22;100309.84;;;14.47;69.63
27729;BME280;15126;42.186;24.340;2022-10-16T07:13:50;100312.81;;;14.40;69.42
27729;BME280;15126;42.186;24.340;2022-10-16T07:16:18;100300.50;;;14.54;69.08
27729;BME280;15126;42.186;24.340;2022-10-16T07:18:46;100315.28;;;14.74;68.87
27729;BME280;15126;42.186;24.340;2022-10-16T07:21:16;100301.59;;;14.76;67.56
27729;BME280;15126;42.186;24.340;2022-10-16T07:23:44;100296.53;;;14.87;67.69
27729;BME280;15126;42.186;24.340;2022-10-16T07:26:11;100294.78;;;14.93;67.14
27729;BME280;15126;42.186;24.340;2022-10-16T07:28:38;100299.88;;;14.98;67.58
27729;BME280;15126;42.186;24.340;2022-10-16T07:31:08;100315.28;;;15.26;67.40
27729;BME280;15126;42.186;24.340;2022-10-16T07:33:37;100303.78;;;15.36;67.92
27729;BME280;15126;42.186;24.340;2022-10-16T07:36:05;100308.47;;;15.43;66.66
27729;BME280;15126;42.186;24.340;2022-10-16T07:38:32;100305.06;;;15.52;66.41
27729;BME280;15126;42.186;24.340;2022-10-16T07:41:06;100311.09;;;15.66;64.46
27729;BME280;15126;42.186;24.340;2022-10-16T07:43:34;100312.09;;;15.60;65.94
27729;BME280;15126;42.186;24.340;2022-10-16T07:46:00;100317.44;;;15.70;64.53
27729;BME280;15126;42.186;24.340;2022-10-16T07:48:29;100309.59;;;15.78;65.24
27729;BME280;15126;42.186;24.340;2022-10-16T07:50:57;100319.34;;;15.89;66.05
27729;BME280;15126;42.186;24.340;2022-10-16T07:53:25;100301.97;;;15.78;63.68
27729;BME280;15126;42.186;24.340;2022-10-16T07:55:51;100313.59;;;15.93;62.83
27729;BME280;15126;42.186;24.340;2022-10-16T07:58:20;100319.75;;;16.04;64.19
27729;BME280;15126;42.186;24.340;2022-10-16T08:00:46;100313.03;;;16.14;63.69
27729;BME280;15126;42.186;24.340;2022-10-16T08:03:13;100319.16;;;16.25;63.71
27729;BME280;15126;42.186;24.340;2022-10-16T08:05:40;100314.13;;;16.33;63.47
27729;BME280;15126;42.186;24.340;2022-10-16T08:08:12;100307.69;;;16.32;63.73
27729;BME280;15126;42.186;24.340;2022-10-16T08:10:39;100317.75;;;16.33;63.84
27729;BME280;15126;42.186;24.340;2022-10-16T08:13:06;100310.69;;;16.25;64.96
27729;BME280;15126;42.186;24.340;2022-10-16T08:15:34;100311.34;;;16.45;63.23
27729;BME280;15126;42.186;24.340;2022-10-16T08:18:02;100318.28;;;16.57;61.61
27729;BME280;15126;42.186;24.340;2022-10-16T08:20:31;100302.00;;;16.48;64.46
27729;BME280;15126;42.186;24.340;2022-10-16T08:22:58;100312.00;;;16.78;63.80
27729;BME280;15126;42.186;24.340;2022-10-16T08:25:26;100311.91;;;16.82;64.35
27729;BME280;15126;42.186;24.340;2022-10-16T08:27:52;100315.16;;;16.67;62.56
27729;BME280;15126;42.186;24.340;2022-10-16T08:30:20;100314.81;;;16.91;62.71
27729;BME280;15126;42.186;24.340;2022-10-16T08:32:49;100312.47;;;16.89;63.41
27729;BME280;15126;42.186;24.340;2022-10-16T08:35:16;100316.19;;;16.74;62.11
27729;BME280;15126;42.186;24.340;2022-10-16T08:37:43;100322.06;;;16.92;62.97
27729;BME280;15126;42.186;24.340;2022-10-16T08:40:17;100306.38;;;16.91;62.66
27729;BME280;15126;42.186;24.340;2022-10-16T08:43:01;100314.19;;;17.12;63.39
27729;BME280;15126;42.186;24.340;2022-10-16T08:45:39;100292.06;;;17.23;62.48
27729;BME280;15126;42.186;24.340;2022-10-16T08:48:20;100302.97;;;17.46;62.08
27729;BME280;15126;42.186;24.340;2022-10-16T08:50:52;100304.69;;;17.56;59.50
27729;BME280;15126;42.186;24.340;2022-10-16T08:53:24;100302.97;;;17.59;59.84
27729;BME280;15126;42.186;24.340;2022-10-16T08:55:53;100301.97;;;17.65;58.82
27729;BME280;15126;42.186;24.340;2022-10-16T08:58:22;100308.03;;;17.76;59.66
27729;BME280;15126;42.186;24.340;2022-10-16T09:00:52;100303.94;;;17.77;58.35
27729;BME280;15126;42.186;24.340;2022-10-16T09:03:42;100299.78;;;17.82;59.51
27729;BME280;15126;42.186;24.340;2022-10-16T09:06:25;100298.63;;;17.92;58.61
27729;BME280;15126;42.186;24.340;2022-10-16T09:09:06;100296.53;;;18.05;58.35
27729;BME280;15126;42.186;24.340;2022-10-16T09:11:45;100293.00;;;18.14;57.62
27729;BME280;15126;42.186;24.340;2022-10-16T09:14:30;100295.91;;;18.23;56.37
27729;BME280;15126;42.186;24.340;2022-10-16T09:17:11;100296.09;;;18.28;56.49
27729;BME280;15126;42.186;24.340;2022-10-16T09:19:47;100292.47;;;18.28;55.65
27729;BME280;15126;42.186;24.340;2022-10-16T09:22:18;100289.66;;;18.28;56.92
27729;BME280;15126;42.186;24.340;2022-10-16T09:24:51;100283.41;;;18.33;55.47
27729;BME280;15126;42.186;24.340;2022-10-16T09:27:18;100284.41;;;18.39;56.30
27729;BME280;15126;42.186;24.340;2022-10-16T09:29:44;100281.22;;;18.50;55.97
27729;BME280;15126;42.186;24.340;2022-10-16T09:32:14;100270.16;;;18.42;54.63
27729;BME280;15126;42.186;24.340;2022-10-16T09:34:45;100267.13;;;18.37;56.50
27729;BME280;15126;42.186;24.340;2022-10-16T09:37:17;100250.56;;;18.48;56.76
27729;BME280;15126;42.186;24.340;2022-10-16T09:39:44;100282.75;;;18.72;55.53
27729;BME280;15126;42.186;24.340;2022-10-16T09:42:14;100268.03;;;18.77;53.64
27729;BME280;15126;42.186;24.340;2022-10-16T09:44:47;100267.84;;;18.72;53.51
27729;BME280;15126;42.186;24.340;2022-10-16T09:47:17;100257.66;;;18.74;52.86
27729;BME280;15126;42.186;24.340;2022-10-16T09:49:54;100268.66;;;18.81;52.91
27729;BME280;15126;42.186;24.340;2022-10-16T09:52:22;100260.16;;;18.72;53.43
27729;BME280;15126;42.186;24.340;2022-10-16T09:54:50;100259.25;;;18.84;51.65
27729;BME280;15126;42.186;24.340;2022-10-16T09:57:17;100266.16;;;18.83;50.12
27729;BME280;15126;42.186;24.340;2022-10-16T09:59:48;100268.84;;;18.87;52.15
27729;BME280;15126;42.186;24.340;2022-10-16T10:02:16;100247.91;;;18.75;52.95
27729;BME280;15126;42.186;24.340;2022-10-16T10:04:49;100264.31;;;18.89;51.53
27729;BME280;15126;42.186;24.340;2022-10-16T10:07:23;100268.72;;;18.90;51.25
27729;BME280;15126;42.186;24.340;2022-10-16T10:09:50;100268.72;;;18.90;49.61
27729;BME280;15126;42.186;24.340;2022-10-16T10:12:19;100259.06;;;18.79;53.66
27729;BME280;15126;42.186;24.340;2022-10-16T10:14:48;100242.66;;;18.65;50.94
27729;BME280;15126;42.186;24.340;2022-10-16T10:17:18;100248.44;;;18.83;51.45
27729;BME280;15126;42.186;24.340;2022-10-16T10:19:51;100243.91;;;18.94;51.29
27729;BME280;15126;42.186;24.340;2022-10-16T10:22:29;100242.34;;;18.93;48.60
27729;BME280;15126;42.186;24.340;2022-10-16T10:24:59;100234.84;;;18.99;49.21
27729;BME280;15126;42.186;24.340;2022-10-16T10:27:34;100231.09;;;19.12;47.73
27729;BME280;15126;42.186;24.340;2022-10-16T10:30:10;100207.13;;;18.94;48.99
27729;BME280;15126;42.186;24.340;2022-10-16T10:32:49;100229.50;;;19.11;49.83
27729;BME280;15126;42.186;24.340;2022-10-16T10:35:22;100213.13;;;18.96;49.90
27729;BME280;15126;42.186;24.340;2022-10-16T10:38:09;100219.19;;;19.26;48.37
27729;BME280;15126;42.186;24.340;2022-10-16T10:40:45;100201.28;;;19.29;46.86
27729;BME280;15126;42.186;24.340;2022-10-16T10:43:24;100199.06;;;19.33;46.44
27729;BME280;15126;42.186;24.340;2022-10-16T10:45:58;100216.09;;;19.42;45.40
27729;BME280;15126;42.186;24.340;2022-10-16T10:48:54;100204.38;;;19.22;48.22
27729;BME280;15126;42.186;24.340;2022-10-16T10:51:29;100203.78;;;19.36;46.84
27729;BME280;15126;42.186;24.340;2022-10-16T10:54:07;100211.50;;;19.35;45.95
27729;BME280;15126;42.186;24.340;2022-10-16T10:56:48;100209.16;;;19.34;46.28
27729;BME280;15126;42.186;24.340;2022-10-16T10:59:49;100199.75;;;19.46;46.16
27729;BME280;15126;42.186;24.340;2022-10-16T11:02:25;100202.13;;;19.56;46.88
27729;BME280;15126;42.186;24.340;2022-10-16T11:05:26;100190.00;;;19.65;44.87
27729;BME280;15126;42.186;24.340;2022-10-16T11:07:58;100197.28;;;19.75;46.57
27729;BME280;15126;42.186;24.340;2022-10-16T11:10:32;100192.06;;;19.83;46.67
27729;BME280;15126;42.186;24.340;2022-10-16T11:13:10;100190.63;;;19.87;47.29
27729;BME280;15126;42.186;24.340;2022-10-16T11:15:44;100191.13;;;19.68;47.21
27729;BME280;15126;42.186;24.340;2022-10-16T11:18:18;100174.94;;;19.86;45.36
27729;BME280;15126;42.186;24.340;2022-10-16T11:20:50;100181.19;;;19.99;46.20
27729;BME280;15126;42.186;24.340;2022-10-16T11:23:24;100179.94;;;20.00;45.93
27729;BME280;15126;42.186;24.340;2022-10-16T11:25:57;100163.25;;;20.02;45.79
27729;BME280;15126;42.186;24.340;2022-10-16T11:28:30;100168.88;;;20.11;44.88
27729;BME280;15126;42.186;24.340;2022-10-16T11:31:03;100158.66;;;20.14;44.50
27729;BME280;15126;42.186;24.340;2022-10-16T11:33:37;100171.72;;;20.30;43.79
27729;BME280;15126;42.186;24.340;2022-10-16T11:36:11;100171.09;;;20.26;43.62
27729;BME280;15126;42.186;24.340;2022-10-16T11:38:44;100177.22;;;20.33;45.82
27729;BME280;15126;42.186;24.340;2022-10-16T11:41:20;100159.16;;;20.12;44.46
27729;BME280;15126;42.186;24.340;2022-10-16T11:43:53;100163.88;;;20.25;43.79
27729;BME280;15126;42.186;24.340;2022-10-16T11:46:26;100170.16;;;20.29;44.70
27729;BME280;15126;42.186;24.340;2022-10-16T11:49:02;100173.88;;;20.44;45.46
27729;BME280;15126;42.186;24.340;2022-10-16T11:51:35;100167.81;;;20.27;44.62
27729;BME280;15126;42.186;24.340;2022-10-16T11:54:16;100162.50;;;20.53;43.72
27729;BME280;15126;42.186;24.340;2022-10-16T11:56:50;100162.25;;;20.74;42.04
27729;BME280;15126;42.186;24.340;2022-10-16T11:59:26;100139.94;;;20.67;42.86
27729;BME280;15126;42.186;24.340;2022-10-16T12:01:59;100151.66;;;20.84;41.27
27729;BME280;15126;42.186;24.340;2022-10-16T12:04:39;100162.34;;;20.89;40.93
27729;BME280;15126;42.186;24.340;2022-10-16T12:07:14;100160.59;;;20.92;41.11
27729;BME280;15126;42.186;24.340;2022-10-16T12:09:42;100147.09;;;20.87;42.50
27729;BME280;15126;42.186;24.340;2022-10-16T12:15:19;100172.13;;;20.88;42.57
27729;BME280;15126;42.186;24.340;2022-10-16T12:17:47;100174.66;;;20.86;42.31
27729;BME280;15126;42.186;24.340;2022-10-16T12:20:35;100179.38;;;20.89;42.70
27729;BME280;15126;42.186;24.340;2022-10-16T12:23:04;100168.19;;;20.44;43.62
27729;BME280;15126;42.186;24.340;2022-10-16T12:25:33;100175.50;;;20.68;43.46
27729;BME280;15126;42.186;24.340;2022-10-16T12:28:03;100176.81;;;20.58;42.53
27729;BME280;15126;42.186;24.340;2022-10-16T12:30:35;100168.25;;;20.35;43.33
27729;BME280;15126;42.186;24.340;2022-10-16T12:33:03;100173.84;;;20.53;41.83
27729;BME280;15126;42.186;24.340;2022-10-16T12:35:33;100174.78;;;20.59;41.33
27729;BME280;15126;42.186;24.340;2022-10-16T12:38:15;100172.28;;;20.52;40.80
27729;BME280;15126;42.186;24.340;2022-10-16T12:40:43;100162.38;;;20.47;40.74
27729;BME280;15126;42.186;24.340;2022-10-16T12:43:13;100173.13;;;20.34;41.71
27729;BME280;15126;42.186;24.340;2022-10-16T12:46:01;100159.78;;;20.26;41.45
27729;BME280;15126;42.186;24.340;2022-10-16T12:48:29;100165.41;;;20.35;40.57
27729;BME280;15126;42.186;24.340;2022-10-16T12:50:56;100163.97;;;20.39;41.36
27729;BME280;15126;42.186;24.340;2022-10-16T12:53:25;100179.88;;;20.37;42.57
27729;BME280;15126;42.186;24.340;2022-10-16T12:56:03;100165.47;;;20.07;41.38
27729;BME280;15126;42.186;24.340;2022-10-16T12:58:55;100169.06;;;20.08;42.62